sensor_id;sensor_type;location;lat;lon;timestamp;temperature;humidity
40516;DHT22;26216;53.724;9.898;2023-04-16T00:01:40;11.40;96.80
40516;DHT22;26216;53.724;9.898;2023-04-16T00:04:06;11.30;96.70
40516;DHT22;26216;53.724;9.898;2023-04-16T00:06:31;11.30;96.80
40516;DHT22;26216;53.724;9.898;2023-04-16T00:08:57;11.30;96.70
40516;DHT22;26216;53.724;9.898;2023-04-16T00:11:23;11.30;97.00
40516;DHT22;26216;53.724;9.898;2023-04-16T00:13:49;11.20;97.00
40516;DHT22;26216;53.724;9.898;2023-04-16T00:16:15;11.30;96.90
40516;DHT22;26216;53.724;9.898;2023-04-16T00:18:41;11.20;96.90
40516;DHT22;26216;53.724;9.898;2023-04-16T00:21:07;11.20;97.00
40516;DHT22;26216;53.724;9.898;2023-04-16T00:23:32;11.20;97.10
40516;DHT22;26216;53.724;9.898;2023-04-16T00:25:58;11.20;97.20
40516;DHT22;26216;53.724;9.898;2023-04-16T00:28:27;11.20;97.40
40516;DHT22;26216;53.724;9.898;2023-04-16T00:30:54;11.20;97.30
40516;DHT22;26216;53.724;9.898;2023-04-16T00:33:20;11.10;97.20
40516;DHT22;26216;53.724;9.898;2023-04-16T00:35:47;11.10;97.40
40516;DHT22;26216;53.724;9.898;2023-04-16T00:38:13;11.10;97.50
40516;DHT22;26216;53.724;9.898;2023-04-16T00:40:39;11.10;97.40
40516;DHT22;26216;53.724;9.898;2023-04-16T00:43:05;11.10;97.40
40516;DHT22;26216;53.724;9.898;2023-04-16T00:45:31;11.10;97.60
40516;DHT22;26216;53.724;9.898;2023-04-16T00:47:58;11.10;97.50
40516;DHT22;26216;53.724;9.898;2023-04-16T00:50:24;11.10;97.60
40516;DHT22;26216;53.724;9.898;2023-04-16T00:52:50;11.10;97.40
40516;DHT22;26216;53.724;9.898;2023-04-16T00:55:16;11.10;97.50
40516;DHT22;26216;53.724;9.898;2023-04-16T00:57:44;11.00;97.60
40516;DHT22;26216;53.724;9.898;2023-04-16T01:00:10;11.00;97.40
40516;DHT22;26216;53.724;9.898;2023-04-16T01:02:37;11.10;97.70
40516;DHT22;26216;53.724;9.898;2023-04-16T01:05:04;11.00;97.90
40516;DHT22;26216;53.724;9.898;2023-04-16T01:07:30;11.00;97.70
40516;DHT22;26216;53.724;9.898;2023-04-16T01:09:56;11.00;97.60
40516;DHT22;26216;53.724;9.898;2023-04-16T01:12:22;11.00;97.70
40516;DHT22;26216;53.724;9.898;2023-04-16T01:14:48;11.00;97.70
40516;DHT22;26216;53.724;9.898;2023-04-16T01:17:15;11.00;97.70
40516;DHT22;26216;53.724;9.898;2023-04-16T01:19:41;11.00;97.90
40516;DHT22;26216;53.724;9.898;2023-04-16T01:22:17;11.00;97.80
40516;DHT22;26216;53.724;9.898;2023-04-16T01:24:44;11.00;97.80
40516;DHT22;26216;53.724;9.898;2023-04-16T01:27:10;11.00;97.70
40516;DHT22;26216;53.724;9.898;2023-04-16T01:29:36;11.00;97.60
40516;DHT22;26216;53.724;9.898;2023-04-16T01:32:01;11.00;97.80
40516;DHT22;26216;53.724;9.898;2023-04-16T01:34:27;11.00;97.70
40516;DHT22;26216;53.724;9.898;2023-04-16T01:36:53;11.00;97.70
40516;DHT22;26216;53.724;9.898;2023-04-16T01:39:20;11.00;97.70
40516;DHT22;26216;53.724;9.898;2023-04-16T01:41:46;11.00;97.60
40516;DHT22;26216;53.724;9.898;2023-04-16T01:44:11;11.00;97.60
40516;DHT22;26216;53.724;9.898;2023-04-16T01:46:38;11.00;97.60
40516;DHT22;26216;53.724;9.898;2023-04-16T01:49:04;11.00;97.60
40516;DHT22;26216;53.724;9.898;2023-04-16T01:51:32;11.00;97.60
40516;DHT22;26216;53.724;9.898;2023-04-16T01:53:58;11.00;97.80
40516;DHT22;26216;53.724;9.898;2023-04-16T01:56:24;11.00;97.80
40516;DHT22;26216;53.724;9.898;2023-04-16T01:58:51;11.00;97.80
40516;DHT22;26216;53.724;9.898;2023-04-16T02:01:16;11.00;97.70
40516;DHT22;26216;53.724;9.898;2023-04-16T02:03:56;11.00;97.80
40516;DHT22;26216;53.724;9.898;2023-04-16T02:06:22;11.00;97.90
40516;DHT22;26216;53.724;9.898;2023-04-16T02:08:48;11.00;97.90
40516;DHT22;26216;53.724;9.898;2023-04-16T02:11:14;10.90;97.80
40516;DHT22;26216;53.724;9.898;2023-04-16T02:13:40;11.00;97.80
40516;DHT22;26216;53.724;9.898;2023-04-16T02:16:06;11.00;97.90
40516;DHT22;26216;53.724;9.898;2023-04-16T02:18:33;11.00;97.90
40516;DHT22;26216;53.724;9.898;2023-04-16T02:20:59;10.90;97.90
40516;DHT22;26216;53.724;9.898;2023-04-16T02:23:25;10.90;98.00
40516;DHT22;26216;53.724;9.898;2023-04-16T02:25:51;10.90;97.80
40516;DHT22;26216;53.724;9.898;2023-04-16T02:28:17;10.90;97.90
40516;DHT22;26216;53.724;9.898;2023-04-16T02:30:43;10.90;97.90
40516;DHT22;26216;53.724;9.898;2023-04-16T02:33:11;10.90;97.90
40516;DHT22;26216;53.724;9.898;2023-04-16T02:35:38;10.90;97.80
40516;DHT22;26216;53.724;9.898;2023-04-16T02:38:04;10.90;98.00
40516;DHT22;26216;53.724;9.898;2023-04-16T02:40:31;10.90;98.00
40516;DHT22;26216;53.724;9.898;2023-04-16T02:42:57;10.90;97.90
40516;DHT22;26216;53.724;9.898;2023-04-16T02:45:23;10.90;97.90
40516;DHT22;26216;53.724;9.898;2023-04-16T02:47:49;10.90;98.00
40516;DHT22;26216;53.724;9.898;2023-04-16T02:50:16;10.90;98.00
40516;DHT22;26216;53.724;9.898;2023-04-16T02:52:42;10.80;97.90
40516;DHT22;26216;53.724;9.898;2023-04-16T02:55:08;10.80;97.90
40516;DHT22;26216;53.724;9.898;2023-04-16T02:57:34;10.80;97.90
40516;DHT22;26216;53.724;9.898;2023-04-16T03:00:00;10.90;98.00
40516;DHT22;26216;53.724;9.898;2023-04-16T03:02:26;10.90;97.90
40516;DHT22;26216;53.724;9.898;2023-04-16T03:04:53;10.80;97.90
40516;DHT22;26216;53.724;9.898;2023-04-16T03:07:19;10.90;97.90
40516;DHT22;26216;53.724;9.898;2023-04-16T03:09:45;10.90;98.00
40516;DHT22;26216;53.724;9.898;2023-04-16T03:12:11;10.90;98.10
40516;DHT22;26216;53.724;9.898;2023-04-16T03:14:37;10.90;97.90
40516;DHT22;26216;53.724;9.898;2023-04-16T03:17:03;10.90;97.90
40516;DHT22;26216;53.724;9.898;2023-04-16T03:19:29;10.90;97.80
40516;DHT22;26216;53.724;9.898;2023-04-16T03:21:55;10.90;97.90
40516;DHT22;26216;53.724;9.898;2023-04-16T03:24:21;10.90;97.80
40516;DHT22;26216;53.724;9.898;2023-04-16T03:26:47;10.90;97.80
40516;DHT22;26216;53.724;9.898;2023-04-16T03:29:12;11.00;97.80
40516;DHT22;26216;53.724;9.898;2023-04-16T03:31:38;10.90;97.80
40516;DHT22;26216;53.724;9.898;2023-04-16T03:34:04;10.90;97.80
40516;DHT22;26216;53.724;9.898;2023-04-16T03:36:30;10.90;97.80
40516;DHT22;26216;53.724;9.898;2023-04-16T03:38:57;11.00;97.90
40516;DHT22;26216;53.724;9.898;2023-04-16T03:41:22;11.00;98.00
40516;DHT22;26216;53.724;9.898;2023-04-16T03:43:48;10.90;97.90
40516;DHT22;26216;53.724;9.898;2023-04-16T03:46:14;10.90;98.10
40516;DHT22;26216;53.724;9.898;2023-04-16T03:48:40;11.00;98.00
40516;DHT22;26216;53.724;9.898;2023-04-16T03:51:06;10.90;98.10
40516;DHT22;26216;53.724;9.898;2023-04-16T03:53:32;10.90;98.00
40516;DHT22;26216;53.724;9.898;2023-04-16T03:55:58;10.90;98.00
40516;DHT22;26216;53.724;9.898;2023-04-16T03:58:24;10.90;98.10
40516;DHT22;26216;53.724;9.898;2023-04-16T04:00:52;10.90;98.10
40516;DHT22;26216;53.724;9.898;2023-04-16T04:03:18;11.00;98.10
40516;DHT22;26216;53.724;9.898;2023-04-16T04:05:44;10.90;98.10
40516;DHT22;26216;53.724;9.898;2023-04-16T04:08:10;11.00;98.20
40516;DHT22;26216;53.724;9.898;2023-04-16T04:10:36;10.90;98.20
40516;DHT22;26216;53.724;9.898;2023-04-16T04:13:03;10.90;98.10
40516;DHT22;26216;53.724;9.898;2023-04-16T04:15:29;11.00;98.20
40516;DHT22;26216;53.724;9.898;2023-04-16T04:17:55;11.00;98.20
40516;DHT22;26216;53.724;9.898;2023-04-16T04:20:22;11.00;98.40
40516;DHT22;26216;53.724;9.898;2023-04-16T04:22:49;10.90;98.20
40516;DHT22;26216;53.724;9.898;2023-04-16T04:25:16;11.00;98.20
40516;DHT22;26216;53.724;9.898;2023-04-16T04:27:42;11.00;98.30
40516;DHT22;26216;53.724;9.898;2023-04-16T04:30:08;11.00;98.40
40516;DHT22;26216;53.724;9.898;2023-04-16T04:32:34;11.00;98.30
40516;DHT22;26216;53.724;9.898;2023-04-16T04:35:01;10.90;98.40
40516;DHT22;26216;53.724;9.898;2023-04-16T04:37:28;10.90;98.40
40516;DHT22;26216;53.724;9.898;2023-04-16T04:39:54;10.90;98.50
40516;DHT22;26216;53.724;9.898;2023-04-16T04:42:20;10.90;98.40
40516;DHT22;26216;53.724;9.898;2023-04-16T04:44:46;11.00;98.50
40516;DHT22;26216;53.724;9.898;2023-04-16T04:47:13;10.90;98.40
40516;DHT22;26216;53.724;9.898;2023-04-16T04:49:40;11.00;98.40
40516;DHT22;26216;53.724;9.898;2023-04-16T04:52:07;10.90;98.50
40516;DHT22;26216;53.724;9.898;2023-04-16T04:54:33;10.90;98.50
40516;DHT22;26216;53.724;9.898;2023-04-16T04:56:58;11.00;98.40
40516;DHT22;26216;53.724;9.898;2023-04-16T04:59:25;11.00;98.40
40516;DHT22;26216;53.724;9.898;2023-04-16T05:01:50;11.00;98.40
40516;DHT22;26216;53.724;9.898;2023-04-16T05:04:16;11.00;98.30
40516;DHT22;26216;53.724;9.898;2023-04-16T05:06:43;11.00;98.40
40516;DHT22;26216;53.724;9.898;2023-04-16T05:09:09;11.10;98.40
40516;DHT22;26216;53.724;9.898;2023-04-16T05:11:42;11.10;98.40
40516;DHT22;26216;53.724;9.898;2023-04-16T05:14:08;11.10;98.40
40516;DHT22;26216;53.724;9.898;2023-04-16T05:16:35;11.10;98.50
40516;DHT22;26216;53.724;9.898;2023-04-16T05:19:03;11.10;98.50
40516;DHT22;26216;53.724;9.898;2023-04-16T05:21:30;11.10;98.50
40516;DHT22;26216;53.724;9.898;2023-04-16T05:23:56;11.20;98.50
40516;DHT22;26216;53.724;9.898;2023-04-16T05:26:22;11.10;98.60
40516;DHT22;26216;53.724;9.898;2023-04-16T05:28:48;11.10;98.60
40516;DHT22;26216;53.724;9.898;2023-04-16T05:31:14;11.10;98.60
40516;DHT22;26216;53.724;9.898;2023-04-16T05:33:39;11.20;98.60
40516;DHT22;26216;53.724;9.898;2023-04-16T05:36:05;11.20;98.60
40516;DHT22;26216;53.724;9.898;2023-04-16T05:38:31;11.20;98.70
40516;DHT22;26216;53.724;9.898;2023-04-16T05:40:57;11.20;98.60
40516;DHT22;26216;53.724;9.898;2023-04-16T05:43:23;11.20;98.60
40516;DHT22;26216;53.724;9.898;2023-04-16T05:45:49;11.20;98.70
40516;DHT22;26216;53.724;9.898;2023-04-16T05:48:15;11.20;98.70
40516;DHT22;26216;53.724;9.898;2023-04-16T05:50:41;11.20;98.70
40516;DHT22;26216;53.724;9.898;2023-04-16T05:53:08;11.20;98.60
40516;DHT22;26216;53.724;9.898;2023-04-16T05:55:34;11.30;98.60
40516;DHT22;26216;53.724;9.898;2023-04-16T05:58:03;11.30;98.70
40516;DHT22;26216;53.724;9.898;2023-04-16T06:00:31;11.20;98.60
40516;DHT22;26216;53.724;9.898;2023-04-16T06:02:57;11.30;98.60
40516;DHT22;26216;53.724;9.898;2023-04-16T06:05:24;11.30;98.70
40516;DHT22;26216;53.724;9.898;2023-04-16T06:07:51;11.30;98.60
40516;DHT22;26216;53.724;9.898;2023-04-16T06:10:17;11.30;98.60
40516;DHT22;26216;53.724;9.898;2023-04-16T06:12:43;11.40;98.60
40516;DHT22;26216;53.724;9.898;2023-04-16T06:15:09;11.40;98.90
40516;DHT22;26216;53.724;9.898;2023-04-16T06:17:35;11.40;98.60
40516;DHT22;26216;53.724;9.898;2023-04-16T06:20:02;11.40;98.60
40516;DHT22;26216;53.724;9.898;2023-04-16T06:22:28;11.40;98.60
40516;DHT22;26216;53.724;9.898;2023-04-16T06:24:54;11.50;98.50
40516;DHT22;26216;53.724;9.898;2023-04-16T06:27:19;11.50;98.50
40516;DHT22;26216;53.724;9.898;2023-04-16T06:29:45;11.60;98.50
40516;DHT22;26216;53.724;9.898;2023-04-16T06:32:11;11.60;98.40
40516;DHT22;26216;53.724;9.898;2023-04-16T06:34:37;11.60;98.40
40516;DHT22;26216;53.724;9.898;2023-04-16T06:37:04;11.60;98.40
40516;DHT22;26216;53.724;9.898;2023-04-16T06:39:29;11.70;98.50
40516;DHT22;26216;53.724;9.898;2023-04-16T06:41:56;11.70;98.40
40516;DHT22;26216;53.724;9.898;2023-04-16T06:44:22;11.70;98.30
40516;DHT22;26216;53.724;9.898;2023-04-16T06:46:49;11.80;98.30
40516;DHT22;26216;53.724;9.898;2023-04-16T06:49:15;11.80;98.30
40516;DHT22;26216;53.724;9.898;2023-04-16T06:51:41;11.80;98.20
40516;DHT22;26216;53.724;9.898;2023-04-16T06:54:07;11.80;98.20
40516;DHT22;26216;53.724;9.898;2023-04-16T06:56:33;11.90;98.20
40516;DHT22;26216;53.724;9.898;2023-04-16T06:59:00;11.80;98.10
40516;DHT22;26216;53.724;9.898;2023-04-16T07:01:27;11.90;98.00
40516;DHT22;26216;53.724;9.898;2023-04-16T07:03:53;11.90;98.00
40516;DHT22;26216;53.724;9.898;2023-04-16T07:06:19;11.90;98.10
40516;DHT22;26216;53.724;9.898;2023-04-16T07:08:45;11.90;98.00
40516;DHT22;26216;53.724;9.898;2023-04-16T07:11:11;11.90;98.00
40516;DHT22;26216;53.724;9.898;2023-04-16T07:13:37;11.90;98.30
40516;DHT22;26216;53.724;9.898;2023-04-16T07:16:03;12.00;98.10
40516;DHT22;26216;53.724;9.898;2023-04-16T07:18:29;12.00;98.10
40516;DHT22;26216;53.724;9.898;2023-04-16T07:20:55;12.00;98.00
40516;DHT22;26216;53.724;9.898;2023-04-16T07:23:20;12.10;98.00
40516;DHT22;26216;53.724;9.898;2023-04-16T07:25:47;12.10;97.90
40516;DHT22;26216;53.724;9.898;2023-04-16T07:28:12;12.10;97.80
40516;DHT22;26216;53.724;9.898;2023-04-16T07:30:41;12.10;97.80
40516;DHT22;26216;53.724;9.898;2023-04-16T07:33:07;12.20;97.80
40516;DHT22;26216;53.724;9.898;2023-04-16T07:35:33;12.20;97.80
40516;DHT22;26216;53.724;9.898;2023-04-16T07:37:59;12.20;97.80
40516;DHT22;26216;53.724;9.898;2023-04-16T07:40:25;12.20;97.90
40516;DHT22;26216;53.724;9.898;2023-04-16T07:42:51;12.30;97.70
40516;DHT22;26216;53.724;9.898;2023-04-16T07:45:18;12.20;97.70
40516;DHT22;26216;53.724;9.898;2023-04-16T07:47:44;12.30;97.60
40516;DHT22;26216;53.724;9.898;2023-04-16T07:50:11;12.30;97.40
40516;DHT22;26216;53.724;9.898;2023-04-16T07:52:37;12.30;97.30
40516;DHT22;26216;53.724;9.898;2023-04-16T07:55:09;12.30;97.20
40516;DHT22;26216;53.724;9.898;2023-04-16T07:57:35;12.30;97.30
40516;DHT22;26216;53.724;9.898;2023-04-16T08:00:01;12.40;97.30
40516;DHT22;26216;53.724;9.898;2023-04-16T08:02:29;12.40;97.20
40516;DHT22;26216;53.724;9.898;2023-04-16T08:04:55;12.40;96.90
40516;DHT22;26216;53.724;9.898;2023-04-16T08:07:21;12.30;97.00
40516;DHT22;26216;53.724;9.898;2023-04-16T08:09:49;12.40;97.10
40516;DHT22;26216;53.724;9.898;2023-04-16T08:12:15;12.40;97.10
40516;DHT22;26216;53.724;9.898;2023-04-16T08:14:43;12.40;97.10
40516;DHT22;26216;53.724;9.898;2023-04-16T08:17:11;12.40;96.90
40516;DHT22;26216;53.724;9.898;2023-04-16T08:19:37;12.30;96.90
40516;DHT22;26216;53.724;9.898;2023-04-16T08:22:03;12.40;97.10
40516;DHT22;26216;53.724;9.898;2023-04-16T08:24:29;12.40;97.20
40516;DHT22;26216;53.724;9.898;2023-04-16T08:26:55;12.30;97.00
40516;DHT22;26216;53.724;9.898;2023-04-16T08:29:21;12.30;97.20
40516;DHT22;26216;53.724;9.898;2023-04-16T08:31:49;12.40;97.20
40516;DHT22;26216;53.724;9.898;2023-04-16T08:34:16;12.40;97.20
40516;DHT22;26216;53.724;9.898;2023-04-16T08:36:42;12.30;97.20
40516;DHT22;26216;53.724;9.898;2023-04-16T08:39:08;12.40;97.20
40516;DHT22;26216;53.724;9.898;2023-04-16T08:41:37;12.40;97.50
40516;DHT22;26216;53.724;9.898;2023-04-16T08:44:07;12.40;97.30
40516;DHT22;26216;53.724;9.898;2023-04-16T08:46:37;12.40;97.20
40516;DHT22;26216;53.724;9.898;2023-04-16T08:49:06;12.40;97.10
40516;DHT22;26216;53.724;9.898;2023-04-16T08:51:35;12.40;97.20
40516;DHT22;26216;53.724;9.898;2023-04-16T08:54:11;12.40;97.20
40516;DHT22;26216;53.724;9.898;2023-04-16T08:56:39;12.40;97.20
40516;DHT22;26216;53.724;9.898;2023-04-16T08:59:06;12.40;97.20
40516;DHT22;26216;53.724;9.898;2023-04-16T09:01:34;12.40;97.20
40516;DHT22;26216;53.724;9.898;2023-04-16T09:04:00;12.40;97.10
40516;DHT22;26216;53.724;9.898;2023-04-16T09:06:27;12.40;97.30
40516;DHT22;26216;53.724;9.898;2023-04-16T09:08:54;12.40;97.10
40516;DHT22;26216;53.724;9.898;2023-04-16T09:11:20;12.40;97.20
40516;DHT22;26216;53.724;9.898;2023-04-16T09:13:47;12.50;97.30
40516;DHT22;26216;53.724;9.898;2023-04-16T09:16:13;12.50;97.30
40516;DHT22;26216;53.724;9.898;2023-04-16T09:18:40;12.50;97.20
40516;DHT22;26216;53.724;9.898;2023-04-16T09:21:08;12.40;97.20
40516;DHT22;26216;53.724;9.898;2023-04-16T09:23:36;12.50;97.30
40516;DHT22;26216;53.724;9.898;2023-04-16T09:26:04;12.50;97.30
40516;DHT22;26216;53.724;9.898;2023-04-16T09:28:44;12.50;97.30
40516;DHT22;26216;53.724;9.898;2023-04-16T09:31:15;12.60;97.50
40516;DHT22;26216;53.724;9.898;2023-04-16T09:33:59;12.70;97.40
40516;DHT22;26216;53.724;9.898;2023-04-16T09:36:25;12.80;97.60
40516;DHT22;26216;53.724;9.898;2023-04-16T09:38:53;12.80;97.40
40516;DHT22;26216;53.724;9.898;2023-04-16T09:41:27;12.90;97.40
40516;DHT22;26216;53.724;9.898;2023-04-16T09:44:01;13.00;97.00
40516;DHT22;26216;53.724;9.898;2023-04-16T09:46:36;13.00;96.80
40516;DHT22;26216;53.724;9.898;2023-04-16T09:51:42;13.20;96.70
40516;DHT22;26216;53.724;9.898;2023-04-16T09:54:09;13.20;96.40
40516;DHT22;26216;53.724;9.898;2023-04-16T09:56:42;13.20;96.20
40516;DHT22;26216;53.724;9.898;2023-04-16T09:59:25;13.20;96.30
40516;DHT22;26216;53.724;9.898;2023-04-16T10:01:59;13.20;96.10
40516;DHT22;26216;53.724;9.898;2023-04-16T10:04:25;13.20;96.00
40516;DHT22;26216;53.724;9.898;2023-04-16T10:07:04;13.20;96.10
40516;DHT22;26216;53.724;9.898;2023-04-16T10:09:31;13.20;95.90
40516;DHT22;26216;53.724;9.898;2023-04-16T10:11:58;13.20;96.10
40516;DHT22;26216;53.724;9.898;2023-04-16T10:14:24;13.20;96.10
40516;DHT22;26216;53.724;9.898;2023-04-16T10:16:50;13.20;96.00
40516;DHT22;26216;53.724;9.898;2023-04-16T10:19:17;13.20;96.10
40516;DHT22;26216;53.724;9.898;2023-04-16T10:21:44;13.10;96.20
40516;DHT22;26216;53.724;9.898;2023-04-16T10:24:11;13.20;96.30
40516;DHT22;26216;53.724;9.898;2023-04-16T10:26:38;13.20;96.40
40516;DHT22;26216;53.724;9.898;2023-04-16T10:29:05;13.20;96.10
40516;DHT22;26216;53.724;9.898;2023-04-16T10:31:32;13.10;96.30
40516;DHT22;26216;53.724;9.898;2023-04-16T10:33:58;13.20;96.10
40516;DHT22;26216;53.724;9.898;2023-04-16T10:36:25;13.10;95.90
40516;DHT22;26216;53.724;9.898;2023-04-16T10:38:52;13.10;95.90
40516;DHT22;26216;53.724;9.898;2023-04-16T10:41:21;13.10;96.10
40516;DHT22;26216;53.724;9.898;2023-04-16T10:43:50;13.10;95.90
40516;DHT22;26216;53.724;9.898;2023-04-16T10:46:24;13.10;96.10
40516;DHT22;26216;53.724;9.898;2023-04-16T10:48:54;13.20;96.00
40516;DHT22;26216;53.724;9.898;2023-04-16T10:51:33;13.20;96.20
40516;DHT22;26216;53.724;9.898;2023-04-16T10:56:44;13.20;96.30
40516;DHT22;26216;53.724;9.898;2023-04-16T10:59:10;13.30;96.20
40516;DHT22;26216;53.724;9.898;2023-04-16T11:01:40;13.30;96.20
40516;DHT22;26216;53.724;9.898;2023-04-16T11:04:33;13.30;96.20
40516;DHT22;26216;53.724;9.898;2023-04-16T11:09:57;13.40;95.90
40516;DHT22;26216;53.724;9.898;2023-04-16T11:12:38;13.30;95.70
40516;DHT22;26216;53.724;9.898;2023-04-16T11:15:09;13.40;95.80
40516;DHT22;26216;53.724;9.898;2023-04-16T11:17:45;13.40;95.90
40516;DHT22;26216;53.724;9.898;2023-04-16T11:20:20;13.40;95.90
40516;DHT22;26216;53.724;9.898;2023-04-16T11:22:48;13.40;95.80
40516;DHT22;26216;53.724;9.898;2023-04-16T11:25:22;13.40;95.80
40516;DHT22;26216;53.724;9.898;2023-04-16T11:27:49;13.40;95.90
40516;DHT22;26216;53.724;9.898;2023-04-16T11:30:17;13.40;95.90
40516;DHT22;26216;53.724;9.898;2023-04-16T11:32:43;13.30;96.00
40516;DHT22;26216;53.724;9.898;2023-04-16T11:35:16;13.40;96.10
40516;DHT22;26216;53.724;9.898;2023-04-16T11:37:46;13.40;96.20
40516;DHT22;26216;53.724;9.898;2023-04-16T11:40:15;13.40;96.10
40516;DHT22;26216;53.724;9.898;2023-04-16T11:42:41;13.50;95.90
40516;DHT22;26216;53.724;9.898;2023-04-16T11:45:08;13.50;96.00
40516;DHT22;26216;53.724;9.898;2023-04-16T11:47:52;13.50;95.80
40516;DHT22;26216;53.724;9.898;2023-04-16T11:52:49;13.50;95.90
40516;DHT22;26216;53.724;9.898;2023-04-16T11:55:16;13.50;95.80
40516;DHT22;26216;53.724;9.898;2023-04-16T11:57:42;13.50;96.00
40516;DHT22;26216;53.724;9.898;2023-04-16T12:00:09;13.50;96.00
40516;DHT22;26216;53.724;9.898;2023-04-16T12:02:48;13.60;96.00
40516;DHT22;26216;53.724;9.898;2023-04-16T12:05:34;13.60;95.80
40516;DHT22;26216;53.724;9.898;2023-04-16T12:08:07;13.60;95.80
40516;DHT22;26216;53.724;9.898;2023-04-16T12:10:35;13.60;96.00
40516;DHT22;26216;53.724;9.898;2023-04-16T12:13:11;13.60;95.70
40516;DHT22;26216;53.724;9.898;2023-04-16T12:15:48;13.60;95.70
40516;DHT22;26216;53.724;9.898;2023-04-16T12:18:15;13.60;95.70
40516;DHT22;26216;53.724;9.898;2023-04-16T12:20:43;13.60;95.70
40516;DHT22;26216;53.724;9.898;2023-04-16T12:23:31;13.60;95.70
40516;DHT22;26216;53.724;9.898;2023-04-16T12:25:57;13.60;95.50
40516;DHT22;26216;53.724;9.898;2023-04-16T12:28:32;13.50;95.70
40516;DHT22;26216;53.724;9.898;2023-04-16T12:30:58;13.50;95.80
40516;DHT22;26216;53.724;9.898;2023-04-16T12:33:24;13.50;95.70
40516;DHT22;26216;53.724;9.898;2023-04-16T12:35:51;13.50;95.80
40516;DHT22;26216;53.724;9.898;2023-04-16T12:38:17;13.50;95.80
40516;DHT22;26216;53.724;9.898;2023-04-16T12:40:43;13.50;95.70
40516;DHT22;26216;53.724;9.898;2023-04-16T12:43:09;13.50;95.80
40516;DHT22;26216;53.724;9.898;2023-04-16T12:45:37;13.50;95.90
40516;DHT22;26216;53.724;9.898;2023-04-16T12:48:03;13.50;95.90
40516;DHT22;26216;53.724;9.898;2023-04-16T12:50:29;13.50;96.00
40516;DHT22;26216;53.724;9.898;2023-04-16T12:52:55;13.50;96.10
40516;DHT22;26216;53.724;9.898;2023-04-16T12:55:22;13.50;96.10
40516;DHT22;26216;53.724;9.898;2023-04-16T12:57:49;13.60;96.30
40516;DHT22;26216;53.724;9.898;2023-04-16T13:00:17;13.60;96.30
40516;DHT22;26216;53.724;9.898;2023-04-16T13:02:44;13.70;96.30
40516;DHT22;26216;53.724;9.898;2023-04-16T13:05:11;13.80;96.30
40516;DHT22;26216;53.724;9.898;2023-04-16T13:07:39;13.80;95.80
40516;DHT22;26216;53.724;9.898;2023-04-16T13:10:06;13.80;96.00
40516;DHT22;26216;53.724;9.898;2023-04-16T13:12:32;13.90;96.10
40516;DHT22;26216;53.724;9.898;2023-04-16T13:14:58;14.00;96.10
40516;DHT22;26216;53.724;9.898;2023-04-16T13:17:24;14.00;96.00
40516;DHT22;26216;53.724;9.898;2023-04-16T13:19:50;14.10;95.90
40516;DHT22;26216;53.724;9.898;2023-04-16T13:22:16;14.10;96.00
40516;DHT22;26216;53.724;9.898;2023-04-16T13:24:42;14.20;95.90
40516;DHT22;26216;53.724;9.898;2023-04-16T13:27:08;14.20;95.90
40516;DHT22;26216;53.724;9.898;2023-04-16T13:29:34;14.30;95.70
40516;DHT22;26216;53.724;9.898;2023-04-16T13:32:01;14.30;95.80
40516;DHT22;26216;53.724;9.898;2023-04-16T13:34:28;14.30;95.70
40516;DHT22;26216;53.724;9.898;2023-04-16T13:36:54;14.40;95.60
40516;DHT22;26216;53.724;9.898;2023-04-16T13:39:21;14.30;95.10
40516;DHT22;26216;53.724;9.898;2023-04-16T13:41:47;14.40;95.40
40516;DHT22;26216;53.724;9.898;2023-04-16T13:44:16;14.40;95.50
40516;DHT22;26216;53.724;9.898;2023-04-16T13:46:42;14.40;95.60
40516;DHT22;26216;53.724;9.898;2023-04-16T13:49:12;14.50;95.60
40516;DHT22;26216;53.724;9.898;2023-04-16T13:51:38;14.50;95.70
40516;DHT22;26216;53.724;9.898;2023-04-16T13:54:05;14.60;95.20
40516;DHT22;26216;53.724;9.898;2023-04-16T13:56:31;14.50;95.10
40516;DHT22;26216;53.724;9.898;2023-04-16T13:58:57;14.50;94.80
40516;DHT22;26216;53.724;9.898;2023-04-16T14:01:23;14.50;95.40
40516;DHT22;26216;53.724;9.898;2023-04-16T14:03:50;14.50;95.00
40516;DHT22;26216;53.724;9.898;2023-04-16T14:06:16;14.60;95.10
40516;DHT22;26216;53.724;9.898;2023-04-16T14:08:43;14.60;95.10
40516;DHT22;26216;53.724;9.898;2023-04-16T14:11:10;14.60;95.30
40516;DHT22;26216;53.724;9.898;2023-04-16T14:13:36;14.60;95.60
40516;DHT22;26216;53.724;9.898;2023-04-16T14:16:02;14.60;95.30
40516;DHT22;26216;53.724;9.898;2023-04-16T14:18:29;14.60;95.10
40516;DHT22;26216;53.724;9.898;2023-04-16T14:20:55;14.60;94.90
40516;DHT22;26216;53.724;9.898;2023-04-16T14:23:21;14.60;94.90
40516;DHT22;26216;53.724;9.898;2023-04-16T14:25:47;14.60;95.00
40516;DHT22;26216;53.724;9.898;2023-04-16T14:28:13;14.60;95.00
40516;DHT22;26216;53.724;9.898;2023-04-16T14:30:40;14.60;94.90
40516;DHT22;26216;53.724;9.898;2023-04-16T14:33:06;14.60;94.70
40516;DHT22;26216;53.724;9.898;2023-04-16T14:35:33;14.60;94.50
40516;DHT22;26216;53.724;9.898;2023-04-16T14:38:00;14.50;94.70
40516;DHT22;26216;53.724;9.898;2023-04-16T14:40:26;14.50;94.80
40516;DHT22;26216;53.724;9.898;2023-04-16T14:42:52;14.50;94.80
40516;DHT22;26216;53.724;9.898;2023-04-16T14:45:18;14.50;94.90
40516;DHT22;26216;53.724;9.898;2023-04-16T14:47:44;14.50;94.90
40516;DHT22;26216;53.724;9.898;2023-04-16T14:50:13;14.50;94.90
40516;DHT22;26216;53.724;9.898;2023-04-16T14:52:40;14.50;94.60
40516;DHT22;26216;53.724;9.898;2023-04-16T14:55:06;14.50;94.60
40516;DHT22;26216;53.724;9.898;2023-04-16T14:57:32;14.50;94.60
40516;DHT22;26216;53.724;9.898;2023-04-16T14:59:58;14.50;94.80
40516;DHT22;26216;53.724;9.898;2023-04-16T15:02:24;14.50;94.90
40516;DHT22;26216;53.724;9.898;2023-04-16T15:04:50;14.40;94.80
40516;DHT22;26216;53.724;9.898;2023-04-16T15:07:16;14.40;94.80
40516;DHT22;26216;53.724;9.898;2023-04-16T15:09:43;14.30;94.80
40516;DHT22;26216;53.724;9.898;2023-04-16T15:12:09;14.30;95.00
40516;DHT22;26216;53.724;9.898;2023-04-16T15:14:36;14.30;95.10
40516;DHT22;26216;53.724;9.898;2023-04-16T15:17:02;14.30;95.10
40516;DHT22;26216;53.724;9.898;2023-04-16T15:19:28;14.30;95.10
40516;DHT22;26216;53.724;9.898;2023-04-16T15:21:54;14.30;95.10
40516;DHT22;26216;53.724;9.898;2023-04-16T15:24:20;14.30;95.20
40516;DHT22;26216;53.724;9.898;2023-04-16T15:26:47;14.30;95.20
40516;DHT22;26216;53.724;9.898;2023-04-16T15:29:13;14.30;95.20
40516;DHT22;26216;53.724;9.898;2023-04-16T15:31:39;14.30;95.20
40516;DHT22;26216;53.724;9.898;2023-04-16T15:34:06;14.30;95.30
40516;DHT22;26216;53.724;9.898;2023-04-16T15:36:33;14.30;95.30
40516;DHT22;26216;53.724;9.898;2023-04-16T15:38:59;14.30;95.30
40516;DHT22;26216;53.724;9.898;2023-04-16T15:41:27;14.30;95.40